Time;durP1;ratioP1;P1;durP2;ratioP2;P2;SDS_P1;SDS_P2;PMS_P1;PMS_P2;Temp;Humidity;BMP_temperature;BMP_pressure;BME280_temperature;BME280_humidity;BME280_pressure;Samples;Min_cycle;Max_cycle;Signal;HPM_P1;HPM_P2
2023/06/23 00:02:22;;;;;;;9.32;3.83;;;;;;;21.08;100.00;100214.59;5046218;28;20033;-63
2023/06/23 00:04:48;;;;;;;6.72;3.40;;;;;;;21.08;100.00;100226.31;5045539;28;20063;-62
2023/06/23 00:07:13;;;;;;;6.75;3.05;;;;;;;21.00;100.00;100234.09;5036600;28;20025;-63
2023/06/23 00:09:39;;;;;;;6.72;3.35;;;;;;;20.98;100.00;100240.59;5045826;28;20033;-63
2023/06/23 00:12:08;;;;;;;5.78;3.15;;;;;;;20.97;100.00;100250.56;5047596;28;20492;-63
2023/06/23 00:14:34;;;;;;;6.38;2.70;;;;;;;20.90;100.00;100249.22;5041231;28;20024;-63
2023/06/23 00:17:00;;;;;;;9.05;3.45;;;;;;;20.83;100.00;100254.19;5036581;28;20036;-63
2023/06/23 00:19:25;;;;;;;10.30;3.45;;;;;;;20.74;100.00;100265.66;5030447;28;20033;-63
2023/06/23 00:21:52;;;;;;;10.35;3.63;;;;;;;20.80;100.00;100276.06;5033575;28;20374;-63
2023/06/23 00:24:17;;;;;;;6.40;3.08;;;;;;;20.84;100.00;100288.38;5029545;28;20029;-62
2023/06/23 00:26:43;;;;;;;8.10;3.25;;;;;;;20.88;100.00;100284.50;5038133;28;20037;-62
2023/06/23 00:29:09;;;;;;;5.35;3.03;;;;;;;20.87;100.00;100285.44;5028846;28;20041;-62
2023/06/23 00:31:34;;;;;;;9.05;3.35;;;;;;;20.89;100.00;100297.03;5032358;28;20036;-63
2023/06/23 00:34:00;;;;;;;5.15;2.72;;;;;;;20.84;100.00;100296.47;5041024;28;20053;-62
2023/06/23 00:36:30;;;;;;;7.55;3.47;;;;;;;20.83;100.00;100297.47;5028889;28;20025;-63
2023/06/23 00:38:56;;;;;;;9.40;3.42;;;;;;;20.83;100.00;100305.59;5040596;28;20031;-63
2023/06/23 00:41:22;;;;;;;6.22;3.60;;;;;;;20.84;100.00;100311.84;5028814;28;20064;-62
2023/06/23 00:43:49;;;;;;;5.80;3.10;;;;;;;20.82;100.00;100311.94;5045778;28;20071;-63
2023/06/23 00:46:17;;;;;;;7.03;3.33;;;;;;;20.85;100.00;100327.97;5048273;28;20493;-62
2023/06/23 00:48:43;;;;;;;7.00;3.45;;;;;;;20.90;100.00;100327.66;5042837;28;20121;-63
2023/06/23 00:51:09;;;;;;;6.65;3.60;;;;;;;20.87;100.00;100331.41;5039761;28;20029;-63
2023/06/23 00:53:35;;;;;;;8.00;3.85;;;;;;;20.92;100.00;100340.06;5033457;28;20041;-62
2023/06/23 00:56:01;;;;;;;8.38;3.65;;;;;;;20.91;100.00;100338.34;5026545;28;20029;-63
2023/06/23 00:58:29;;;;;;;7.10;3.65;;;;;;;20.91;100.00;100342.88;5026697;28;20033;-63
2023/06/23 01:00:55;;;;;;;8.07;3.83;;;;;;;20.88;100.00;100340.41;5027684;28;20040;-63
2023/06/23 01:03:20;;;;;;;7.57;3.63;;;;;;;20.95;100.00;100352.53;5035401;28;20060;-63
2023/06/23 01:05:49;;;;;;;6.70;3.67;;;;;;;20.99;99.82;100353.22;5032795;28;20033;-63
2023/06/23 01:08:33;;;;;;;6.45;3.35;;;;;;;21.02;99.75;100356.56;5043864;28;20029;-63
2023/06/23 01:11:08;;;;;;;5.43;2.83;;;;;;;21.11;99.75;100353.22;5037048;28;20469;-63
2023/06/23 01:13:40;;;;;;;7.50;3.65;;;;;;;21.10;100.00;100347.91;5041580;28;20492;-63
2023/06/23 01:16:11;;;;;;;6.65;3.55;;;;;;;21.16;100.00;100347.47;5032034;28;20974;-63
2023/06/23 01:18:58;;;;;;;7.25;3.70;;;;;;;21.11;100.00;100344.22;5028647;28;20151;-62
2023/06/23 01:22:02;;;;;;;8.75;3.88;;;;;;;21.10;100.00;100342.50;5042485;28;20362;-63
2023/06/23 01:24:43;;;;;;;9.60;4.25;;;;;;;21.08;100.00;100341.75;5019633;28;20048;-62
2023/06/23 01:27:33;;;;;;;7.22;3.92;;;;;;;21.04;100.00;100337.53;5033040;28;20186;-62
2023/06/23 01:30:02;;;;;;;9.02;5.68;;;;;;;20.99;100.00;100339.69;5046204;28;20036;-62
2023/06/23 01:32:39;;;;;;;11.05;5.53;;;;;;;20.89;100.00;100351.13;5042306;28;20032;-62
2023/06/23 01:35:09;;;;;;;10.13;5.68;;;;;;;20.87;100.00;100346.81;5040536;28;20037;-62
2023/06/23 01:37:38;;;;;;;11.40;6.68;;;;;;;20.84;100.00;100346.97;5036434;28;20030;-62
2023/06/23 01:40:15;;;;;;;10.52;6.45;;;;;;;20.84;100.00;100352.41;5032270;28;20037;-63
2023/06/23 01:42:45;;;;;;;11.88;7.28;;;;;;;20.82;100.00;100351.66;5041487;28;20104;-62
2023/06/23 01:45:13;;;;;;;11.15;6.97;;;;;;;20.82;100.00;100349.78;5031661;28;20508;-62
2023/06/23 01:47:41;;;;;;;14.85;8.00;;;;;;;20.93;100.00;100365.28;5032123;28;20110;-63
2023/06/23 01:50:09;;;;;;;13.02;8.18;;;;;;;20.91;100.00;100362.69;5038940;28;20136;-62
2023/06/23 01:52:38;;;;;;;15.52;9.32;;;;;;;20.86;100.00;100356.75;5037835;28;20041;-62
2023/06/23 01:55:05;;;;;;;15.35;9.57;;;;;;;20.88;100.00;100362.91;5041315;28;20026;-62
2023/06/23 01:57:33;;;;;;;19.80;10.57;;;;;;;20.84;100.00;100369.50;5037111;28;20560;-61
2023/06/23 02:00:01;;;;;;;15.93;10.15;;;;;;;20.90;100.00;100363.66;5032100;28;20031;-62
2023/06/23 02:02:28;;;;;;;17.33;10.65;;;;;;;20.91;100.00;100365.41;5032515;28;20029;-62
2023/06/23 02:04:57;;;;;;;17.38;10.52;;;;;;;20.97;100.00;100374.06;5031842;28;20136;-62
2023/06/23 02:07:23;;;;;;;16.25;10.32;;;;;;;20.91;100.00;100365.41;5043163;28;20076;-62
2023/06/23 02:09:51;;;;;;;17.33;11.18;;;;;;;20.88;100.00;100360.22;5032219;28;20124;-62
2023/06/23 02:12:17;;;;;;;17.80;10.73;;;;;;;20.87;100.00;100361.16;5039429;28;20449;-62
2023/06/23 02:14:44;;;;;;;17.88;11.13;;;;;;;20.93;100.00;100368.88;5031185;28;20087;-62
2023/06/23 02:17:11;;;;;;;20.15;11.48;;;;;;;20.94;100.00;100370.59;5031365;28;20021;-62
2023/06/23 02:19:45;;;;;;;18.77;11.07;;;;;;;20.99;100.00;100372.16;5042829;28;20060;-63
2023/06/23 02:22:14;;;;;;;18.92;11.70;;;;;;;20.99;100.00;100382.97;5044404;28;20045;-62
2023/06/23 02:24:40;;;;;;;22.00;12.43;;;;;;;21.01;100.00;100389.13;5051711;28;20419;-62
2023/06/23 02:27:07;;;;;;;24.50;13.35;;;;;;;21.03;100.00;100395.31;5050065;28;20032;-62
2023/06/23 02:29:38;;;;;;;20.20;12.57;;;;;;;21.01;100.00;100387.28;5035371;28;20028;-62
2023/06/23 02:32:04;;;;;;;22.70;13.13;;;;;;;20.99;100.00;100396.50;5047642;28;20025;-61
2023/06/23 02:34:30;;;;;;;19.48;12.73;;;;;;;21.02;100.00;100401.69;5032687;28;20040;-63
2023/06/23 02:37:02;;;;;;;24.58;13.73;;;;;;;21.01;100.00;100402.66;5040005;28;20048;-62
2023/06/23 02:39:31;;;;;;;23.83;13.70;;;;;;;20.98;100.00;100402.88;5039478;28;20484;-62
2023/06/23 02:41:58;;;;;;;24.50;13.80;;;;;;;20.91;100.00;100400.56;5033292;28;20512;-62
2023/06/23 02:44:32;;;;;;;23.85;14.73;;;;;;;20.90;100.00;100406.06;5037428;28;20036;-62
2023/06/23 02:47:00;;;;;;;22.73;14.40;;;;;;;20.87;100.00;100399.03;5031740;28;20040;-62
2023/06/23 02:49:28;;;;;;;24.40;14.30;;;;;;;20.89;100.00;100404.31;5038227;28;20029;-62
2023/06/23 02:51:58;;;;;;;22.02;14.80;;;;;;;20.84;100.00;100395.66;5031497;28;20029;-62
2023/06/23 02:54:25;;;;;;;24.92;15.02;;;;;;;20.82;100.00;100401.19;5031742;28;20530;-62
2023/06/23 02:56:53;;;;;;;23.95;14.90;;;;;;;20.79;100.00;100408.63;5031938;28;20531;-62
2023/06/23 02:59:21;;;;;;;24.95;15.15;;;;;;;20.82;100.00;100414.69;5048656;28;20039;-61
2023/06/23 03:01:52;;;;;;;24.67;14.98;;;;;;;20.82;100.00;100425.50;5039358;28;20049;-61
2023/06/23 03:04:18;;;;;;;27.73;15.88;;;;;;;20.82;100.00;100416.56;5034235;28;20064;-61
2023/06/23 03:06:44;;;;;;;36.70;15.27;;;;;;;20.75;100.00;100426.94;5042928;28;20117;-62
2023/06/23 03:09:10;;;;;;;37.22;17.92;;;;;;;20.70;100.00;100429.06;5051627;28;20475;-61
2023/06/23 03:11:37;;;;;;;25.73;15.90;;;;;;;20.70;100.00;100442.59;5047926;28;20050;-62
2023/06/23 03:14:03;;;;;;;27.80;17.10;;;;;;;20.72;100.00;100442.47;5034473;28;20116;-62
2023/06/23 03:17:07;;;;;;;30.98;17.33;;;;;;;20.72;100.00;100446.03;5031668;28;20025;-62
2023/06/23 03:20:00;;;;;;;30.30;18.38;;;;;;;20.72;100.00;100454.13;5031104;28;20489;-61
2023/06/23 03:22:30;;;;;;;31.52;18.00;;;;;;;20.74;100.00;100449.50;5036918;28;20087;-62
2023/06/23 03:25:03;;;;;;;33.33;17.92;;;;;;;20.77;100.00;100462.81;5031393;28;20033;-62
2023/06/23 03:27:31;;;;;;;27.35;18.13;;;;;;;20.76;100.00;100463.78;5037107;28;20089;-62
2023/06/23 03:30:04;;;;;;;30.63;19.05;;;;;;;20.76;100.00;100473.72;5030946;28;20033;-61
2023/06/23 03:32:34;;;;;;;34.80;20.08;;;;;;;20.76;100.00;100462.91;5032975;28;20029;-62
2023/06/23 03:35:06;;;;;;;34.20;20.40;;;;;;;20.79;100.00;100473.53;5029168;28;20026;-62
2023/06/23 03:37:35;;;;;;;37.77;20.43;;;;;;;20.72;100.00;100461.41;5021151;28;20044;-62
2023/06/23 03:40:09;;;;;;;32.72;19.10;;;;;;;20.65;100.00;100460.06;5039730;28;20037;-61
2023/06/23 03:42:39;;;;;;;31.98;19.98;;;;;;;20.70;100.00;100475.03;5040663;28;20523;-62
2023/06/23 03:45:07;;;;;;;33.88;20.70;;;;;;;20.75;100.00;100472.88;5032964;28;20417;-61
2023/06/23 03:47:35;;;;;;;34.70;20.80;;;;;;;20.77;100.00;100480.91;5029611;28;20112;-62
2023/06/23 03:50:10;;;;;;;37.85;21.23;;;;;;;20.75;100.00;100486.41;5029041;28;20485;-62
2023/06/23 03:52:38;;;;;;;37.90;21.10;;;;;;;20.65;100.00;100482.56;5028703;28;20021;-61
2023/06/23 03:55:06;;;;;;;36.00;22.05;;;;;;;20.70;100.00;100495.78;5044433;28;20069;-61
2023/06/23 03:57:33;;;;;;;37.83;21.92;;;;;;;20.69;100.00;100505.72;5028905;28;20469;-61
2023/06/23 04:00:01;;;;;;;39.83;21.45;;;;;;;20.78;100.00;100498.84;5036375;28;20025;-62
2023/06/23 04:02:30;;;;;;;38.22;21.55;;;;;;;20.71;100.00;100503.78;5033133;28;20026;-62
2023/06/23 04:04:57;;;;;;;42.35;22.88;;;;;;;20.70;100.00;100507.47;5041738;28;20045;-62
2023/06/23 04:07:27;;;;;;;34.10;21.08;;;;;;;20.66;100.00;100511.34;5040635;28;20033;-61
2023/06/23 04:09:55;;;;;;;41.10;23.45;;;;;;;20.62;100.00;100517.94;5031121;28;20028;-61
2023/06/23 04:12:23;;;;;;;41.10;22.23;;;;;;;20.66;100.00;100526.69;5030100;28;20026;-62
2023/06/23 04:14:54;;;;;;;46.15;23.02;;;;;;;20.64;100.00;100528.66;5032378;28;20064;-62
2023/06/23 04:17:22;;;;;;;38.83;22.20;;;;;;;20.67;100.00;100531.97;5043385;28;20453;-62
2023/06/23 04:19:53;;;;;;;39.17;22.83;;;;;;;20.71;100.00;100519.13;5048360;28;20152;-61
2023/06/23 04:22:20;;;;;;;41.78;22.02;;;;;;;20.79;100.00;100531.19;5030268;28;20040;-61
2023/06/23 04:24:47;;;;;;;39.40;22.08;;;;;;;20.82;100.00;100543.66;5029805;28;20026;-62
2023/06/23 04:27:14;;;;;;;40.03;22.17;;;;;;;20.86;100.00;100532.53;5030467;28;20060;-62
2023/06/23 04:29:43;;;;;;;38.47;23.38;;;;;;;20.81;100.00;100537.38;5040454;28;20037;-61
2023/06/23 04:32:10;;;;;;;37.28;22.63;;;;;;;20.83;100.00;100548.06;5032933;28;20093;-62
2023/06/23 04:34:35;;;;;;;38.08;21.92;;;;;;;20.91;100.00;100548.44;5037879;28;20040;-62
2023/06/23 04:37:30;;;;;;;42.17;23.27;;;;;;;20.85;100.00;100555.13;5038980;28;20025;-62
2023/06/23 04:40:08;;;;;;;38.03;21.48;;;;;;;20.92;100.00;100566.41;5048131;28;20052;-61
2023/06/23 04:42:50;;;;;;;41.08;21.98;;;;;;;20.95;100.00;100572.47;5043237;28;20067;-62
2023/06/23 04:45:24;;;;;;;37.10;23.20;;;;;;;20.91;100.00;100570.94;5032377;28;20160;-62
2023/06/23 04:47:57;;;;;;;40.70;21.27;;;;;;;20.94;100.00;100570.75;5030304;28;20114;-61
2023/06/23 04:50:27;;;;;;;39.47;21.75;;;;;;;20.92;100.00;100564.56;5036232;28;20055;-61
2023/06/23 04:52:55;;;;;;;36.33;21.80;;;;;;;20.87;100.00;100574.81;5034252;28;20044;-61
2023/06/23 04:55:21;;;;;;;38.92;20.90;;;;;;;20.80;100.00;100568.09;5043902;28;20041;-61
2023/06/23 04:57:55;;;;;;;37.72;21.23;;;;;;;20.72;100.00;100561.44;5040704;28;20478;-61
2023/06/23 05:00:22;;;;;;;40.17;20.95;;;;;;;20.81;100.00;100577.94;5032831;28;20029;-62
2023/06/23 05:02:50;;;;;;;37.90;21.25;;;;;;;20.80;100.00;100578.91;5039792;28;20040;-62
2023/06/23 05:05:21;;;;;;;37.03;20.48;;;;;;;20.81;100.00;100586.03;5034507;28;20443;-61
2023/06/23 05:07:48;;;;;;;35.33;21.58;;;;;;;20.86;100.00;100588.44;5040952;28;20034;-61
2023/06/23 05:10:15;;;;;;;37.53;22.13;;;;;;;20.87;99.77;100591.03;5030062;28;20036;-61
2023/06/23 05:12:43;;;;;;;40.08;21.10;;;;;;;20.88;98.49;100590.09;5029920;28;20076;-61
2023/06/23 05:15:10;;;;;;;37.05;19.98;;;;;;;20.87;98.13;100593.75;5034322;28;20143;-61
2023/06/23 05:17:38;;;;;;;36.80;22.98;;;;;;;20.89;98.78;100594.50;5032882;28;20021;-61
2023/06/23 05:20:08;;;;;;;37.28;21.20;;;;;;;20.93;98.45;100592.47;5036677;28;20792;-62
2023/06/23 05:22:35;;;;;;;37.40;20.63;;;;;;;20.89;98.53;100599.94;5043875;28;20029;-62
2023/06/23 05:25:04;;;;;;;37.05;20.50;;;;;;;20.95;98.34;100604.91;5045257;28;20115;-61
2023/06/23 05:27:32;;;;;;;36.00;19.65;;;;;;;20.99;97.93;100610.19;5041945;28;20060;-61
2023/06/23 05:29:59;;;;;;;34.78;20.70;;;;;;;21.06;97.82;100608.78;5035051;28;20127;-62
2023/06/23 05:32:28;;;;;;;30.85;19.45;;;;;;;21.02;97.23;100607.28;5039412;28;20535;-61
2023/06/23 05:34:58;;;;;;;39.95;21.00;;;;;;;21.04;97.07;100611.59;5036464;28;20565;-61
2023/06/23 05:37:24;;;;;;;37.22;20.50;;;;;;;21.07;97.31;100615.97;5038895;28;20751;-61
2023/06/23 05:39:51;;;;;;;35.05;20.23;;;;;;;21.10;97.25;100619.34;5039658;28;20025;-62
2023/06/23 05:42:19;;;;;;;34.58;19.90;;;;;;;21.19;97.71;100618.69;5037084;28;20033;-62
2023/06/23 05:44:44;;;;;;;33.20;18.55;;;;;;;21.20;96.37;100619.59;5040578;28;20033;-61
2023/06/23 05:47:17;;;;;;;36.50;22.35;;;;;;;21.35;95.91;100632.09;5044722;28;20115;-61
2023/06/23 05:49:44;;;;;;;35.72;20.25;;;;;;;21.45;95.17;100625.94;5033683;28;20384;-62
2023/06/23 05:52:13;;;;;;;34.15;19.00;;;;;;;21.54;94.37;100624.47;5037550;28;20087;-61
2023/06/23 05:54:42;;;;;;;30.95;19.65;;;;;;;21.55;92.45;100612.63;5040530;28;20028;-62
2023/06/23 05:57:16;;;;;;;32.08;19.10;;;;;;;21.59;92.09;100619.59;5042604;28;20108;-62
2023/06/23 05:59:45;;;;;;;32.60;19.52;;;;;;;21.67;92.61;100626.22;5037167;28;20024;-62
2023/06/23 06:02:19;;;;;;;29.17;20.10;;;;;;;21.83;92.78;100623.34;5041586;28;20032;-62
2023/06/23 06:04:48;;;;;;;35.08;19.85;;;;;;;21.99;91.79;100621.34;5035540;28;20132;-62
2023/06/23 06:07:16;;;;;;;34.58;18.92;;;;;;;22.09;90.43;100627.84;5038307;28;20033;-61
2023/06/23 06:09:43;;;;;;;32.65;18.63;;;;;;;22.22;88.92;100634.13;5046725;28;20056;-62
2023/06/23 06:12:11;;;;;;;31.02;17.15;;;;;;;22.14;87.67;100625.69;5030365;28;20033;-61
2023/06/23 06:14:39;;;;;;;31.13;18.38;;;;;;;22.13;87.92;100623.94;5040641;28;20307;-61
2023/06/23 06:17:09;;;;;;;28.15;17.95;;;;;;;22.02;86.20;100629.25;5011178;28;20030;-61
2023/06/23 06:19:39;;;;;;;31.88;18.20;;;;;;;22.07;87.08;100625.22;5031047;28;20082;-61
2023/06/23 06:22:08;;;;;;;31.27;18.73;;;;;;;22.01;87.66;100647.34;5030579;28;20075;-61
2023/06/23 06:24:35;;;;;;;30.80;18.70;;;;;;;22.13;88.29;100643.78;5038382;28;20135;-62
2023/06/23 06:27:02;;;;;;;30.95;19.05;;;;;;;22.15;88.05;100638.25;5031649;28;20033;-61
2023/06/23 06:29:29;;;;;;;33.63;19.45;;;;;;;22.24;87.46;100643.00;5034375;28;20048;-61
2023/06/23 06:31:56;;;;;;;27.33;18.42;;;;;;;22.37;86.34;100643.91;5034039;28;20532;-61
2023/06/23 06:34:24;;;;;;;30.45;17.80;;;;;;;22.45;86.61;100656.91;5033521;28;20112;-61
2023/06/23 06:36:51;;;;;;;31.42;19.15;;;;;;;22.47;86.74;100655.78;5037688;28;20020;-61
2023/06/23 06:39:17;;;;;;;29.70;17.65;;;;;;;22.65;85.27;100657.22;5031250;28;20025;-61
2023/06/23 06:41:44;;;;;;;30.02;17.55;;;;;;;22.87;84.55;100662.84;5044583;28;20112;-62
2023/06/23 06:44:10;;;;;;;31.65;17.73;;;;;;;23.06;83.10;100671.34;5048358;28;20025;-61
2023/06/23 06:46:39;;;;;;;32.60;17.92;;;;;;;23.19;82.45;100685.78;5042776;28;20268;-61
2023/06/23 06:49:05;;;;;;;28.58;16.95;;;;;;;23.17;79.45;100670.56;5032120;28;20063;-60
2023/06/23 06:51:32;;;;;;;28.02;15.88;;;;;;;23.14;80.50;100679.81;5032860;28;20725;-60
2023/06/23 06:53:57;;;;;;;30.38;17.00;;;;;;;22.77;81.52;100682.59;5033277;28;20037;-60
2023/06/23 06:56:23;;;;;;;30.27;16.88;;;;;;;22.75;82.70;100687.28;5046795;28;20027;-61
2023/06/23 06:58:49;;;;;;;30.95;17.40;;;;;;;22.73;81.08;100689.22;5030849;28;20071;-61
2023/06/23 07:01:15;;;;;;;26.80;16.02;;;;;;;22.56;79.90;100684.13;5041685;28;20029;-62
2023/06/23 07:03:42;;;;;;;28.48;15.82;;;;;;;22.48;81.00;100683.78;5032079;28;20041;-61
2023/06/23 07:06:08;;;;;;;28.73;16.55;;;;;;;22.34;82.72;100695.59;5031144;28;20034;-61
2023/06/23 07:08:34;;;;;;;26.30;16.90;;;;;;;22.35;84.28;100696.47;5035042;28;20039;-60
2023/06/23 07:11:00;;;;;;;27.65;15.90;;;;;;;22.47;83.99;100688.34;5037111;28;20469;-61
2023/06/23 07:13:26;;;;;;;24.75;16.00;;;;;;;22.68;83.12;100703.13;5028771;28;20051;-61
2023/06/23 07:15:51;;;;;;;27.38;16.70;;;;;;;22.98;79.47;100703.63;5038416;28;20025;-61
2023/06/23 07:18:16;;;;;;;28.75;16.33;;;;;;;23.35;78.73;100699.09;5020109;28;20033;-61
2023/06/23 07:20:42;;;;;;;23.20;14.30;;;;;;;23.55;77.40;100712.06;5029287;28;20096;-61
2023/06/23 07:23:08;;;;;;;26.40;14.68;;;;;;;23.90;76.49;100720.28;5037116;28;20029;-61
2023/06/23 07:25:34;;;;;;;24.90;15.18;;;;;;;24.17;75.05;100715.44;5046936;28;20518;-61
2023/06/23 07:27:59;;;;;;;26.13;14.18;;;;;;;24.36;74.47;100721.22;5044144;28;20032;-61
2023/06/23 07:30:25;;;;;;;29.05;14.50;;;;;;;24.50;71.85;100710.09;5033138;28;20049;-61
2023/06/23 07:32:50;;;;;;;28.13;15.80;;;;;;;24.55;69.67;100710.59;5031821;28;20090;-61
2023/06/23 07:35:16;;;;;;;24.88;14.13;;;;;;;24.87;71.06;100717.09;5029996;28;20075;-61
2023/06/23 07:37:42;;;;;;;22.33;13.88;;;;;;;24.55;70.96;100716.91;5039118;28;20040;-61
2023/06/23 07:40:08;;;;;;;;;;;;;;;24.38;71.33;100727.41;5044299;28;20025;-61
2023/06/23 07:42:33;;;;;;;;;;;;;;;24.61;72.01;100727.31;5022889;28;19924;-61
2023/06/23 07:44:58;;;;;;;;;;;;;;;24.95;69.89;100736.41;5028145;28;19917;-61
2023/06/23 07:47:24;;;;;;;;;;;;;;;25.36;68.03;100733.94;5046442;28;19948;-61
2023/06/23 07:49:49;;;;;;;;;;;;;;;25.18;66.47;100743.59;5047844;28;19934;-62
2023/06/23 07:52:15;;;;;;;;;;;;;;;24.68;69.53;100738.59;5037027;28;20882;-62
2023/06/23 07:54:40;;;;;;;;;;;;;;;24.60;71.12;100747.34;5037122;28;19920;-62
2023/06/23 07:57:08;;;;;;;;;;;;;;;24.60;71.94;100746.47;5044635;28;20334;-63
2023/06/23 07:59:33;;;;;;;;;;;;;;;24.36;71.64;100754.72;5047559;28;19917;-63
2023/06/23 08:01:59;;;;;;;;;;;;;;;24.37;71.20;100748.28;5046541;28;19940;-63
2023/06/23 08:04:24;;;;;;;;;;;;;;;25.13;69.94;100742.22;5046892;28;20347;-63
2023/06/23 08:06:49;;;;;;;;;;;;;;;25.42;66.54;100741.59;5047644;28;19947;-62
2023/06/23 08:09:15;;;;;;;;;;;;;;;25.63;66.54;100748.00;5047853;28;19947;-63
2023/06/23 08:11:40;;;;;;;;;;;;;;;25.84;66.07;100754.41;5048758;28;19935;-63
2023/06/23 08:14:06;;;;;;;;;;;;;;;25.93;63.87;100752.72;5047342;28;19920;-63
2023/06/23 08:16:31;;;;;;;;;;;;;;;26.02;65.45;100753.84;5036839;28;19920;-63
2023/06/23 08:18:56;;;;;;;;;;;;;;;26.42;64.67;100757.66;5038408;28;19921;-63
2023/06/23 08:21:22;;;;;;;;;;;;;;;26.20;63.33;100755.00;5045922;28;19936;-63
2023/06/23 08:23:47;;;;;;;;;;;;;;;26.02;64.04;100756.56;5030241;28;19917;-63
2023/06/23 08:26:12;;;;;;;;;;;;;;;25.75;62.11;100759.72;5032314;28;20041;-64
2023/06/23 08:28:38;;;;;;;;;;;;;;;25.95;64.57;100758.94;5047714;28;19924;-63
2023/06/23 08:31:03;;;;;;;;;;;;;;;26.59;61.17;100757.06;5042770;28;19917;-63
2023/06/23 08:33:28;;;;;;;;;;;;;;;27.19;60.71;100757.13;5027821;28;20284;-63
2023/06/23 08:35:54;;;;;;;;;;;;;;;27.69;58.21;100764.38;5038475;28;20785;-64
2023/06/23 08:38:19;;;;;;;;;;;;;;;27.46;56.43;100765.59;5045581;28;19975;-64
2023/06/23 08:40:46;;;;;;;;;;;;;;;27.28;58.50;100767.28;5027721;28;19917;-63
2023/06/23 08:43:11;;;;;;;;;;;;;;;27.73;56.37;100774.00;5039785;28;19920;-63
2023/06/23 08:45:40;;;;;;;;;;;;;;;28.04;56.75;100774.84;5045265;28;19959;-64
2023/06/23 08:48:05;;;;;;;;;;;;;;;27.46;55.57;100771.06;5045166;28;19924;-63
2023/06/23 08:50:31;;;;;;;;;;;;;;;27.27;55.67;100776.41;5031334;28;19917;-64
2023/06/23 08:52:59;;;;;;;;;;;;;;;27.61;55.19;100780.59;5033913;28;19955;-64
2023/06/23 08:55:24;;;;;;;;;;;;;;;28.04;54.35;100789.34;5036120;28;20287;-63
2023/06/23 08:57:50;;;;;;;;;;;;;;;28.24;53.08;100796.56;5027321;28;19921;-63
2023/06/23 09:00:15;;;;;;;;;;;;;;;28.07;54.13;100789.06;5027222;28;19940;-63
2023/06/23 09:02:41;;;;;;;;;;;;;;;28.56;55.06;100790.84;5046049;28;19916;-64
2023/06/23 09:05:07;;;;;;;;;;;;;;;28.69;51.92;100791.41;5035767;28;19917;-64
2023/06/23 09:07:32;;;;;;;;;;;;;;;28.43;51.31;100796.56;5038068;28;20032;-64
2023/06/23 09:09:57;;;;;;;;;;;;;;;28.84;51.88;100781.72;5028541;28;19971;-63
2023/06/23 09:12:24;;;;;;;;;;;;;;;28.99;48.97;100798.53;5026545;28;19917;-64
2023/06/23 09:14:50;;;;;;;;;;;;;;;28.98;49.32;100786.72;5027563;28;19917;-63
2023/06/23 09:17:16;;;;;;;;;;;;;;;29.13;49.21;100800.81;5043526;28;20011;-63
2023/06/23 09:19:42;;;;;;;;;;;;;;;28.81;48.67;100801.19;5040216;28;20019;-64
2023/06/23 09:22:08;;;;;;;;;;;;;;;28.23;51.29;100805.81;5034878;28;19917;-63
2023/06/23 09:24:40;;;;;;;;;;;;;;;27.55;51.59;100813.97;5040110;28;19917;-63
2023/06/23 09:27:05;;;;;;;;;;;;;;;27.19;55.04;100811.75;5028152;28;19925;-64
2023/06/23 09:29:31;;;;;;;;;;;;;;;27.52;55.07;100806.03;5039138;28;19917;-64
2023/06/23 09:31:59;;;;;;;;;;;;;;;28.13;52.73;100810.41;5047412;28;19970;-64
2023/06/23 09:34:25;;;;;;;;;;;;;;;28.49;49.04;100800.63;5046967;28;19924;-64
2023/06/23 09:36:52;;;;;;;;;;;;;;;28.83;51.20;100804.63;5033082;28;19969;-64
2023/06/23 09:39:18;;;;;;;;;;;;;;;29.14;48.18;100802.56;5041946;28;19970;-63
2023/06/23 09:41:52;;;;;;;;;;;;;;;29.19;49.47;100801.09;5045787;28;20866;-64
2023/06/23 09:44:17;;;;;;;;;;;;;;;29.93;47.60;100799.19;5031383;28;19921;-64
2023/06/23 09:46:43;;;;;;;;;;;;;;;30.03;46.88;100780.78;5044889;28;19986;-64
2023/06/23 09:49:08;;;;;;;;;;;;;;;30.46;46.10;100805.59;5040061;28;19923;-64
2023/06/23 09:51:54;;;;;;;;;;;;;;;30.70;45.38;100811.31;5038172;28;19917;-64
2023/06/23 09:54:36;;;;;;;;;;;;;;;31.01;46.19;100811.75;5032777;28;19920;-64
2023/06/23 09:57:06;;;;;;;;;;;;;;;30.69;44.55;100805.97;5031720;28;20756;-64
2023/06/23 09:59:32;;;;;;;;;;;;;;;30.53;44.97;100806.69;5036800;28;20076;-64
2023/06/23 10:01:57;;;;;;;;;;;;;;;30.84;44.35;100805.25;5031805;28;20016;-64
2023/06/23 10:04:29;;;;;;;;;;;;;;;30.93;44.78;100814.44;5032594;28;20011;-63
2023/06/23 10:06:54;;;;;;;;;;;;;;;30.73;44.36;100816.47;5042534;28;19967;-64
2023/06/23 10:09:22;;;;;;;;;;;;;;;30.44;43.92;100820.50;5036966;28;20320;-65
2023/06/23 10:11:48;;;;;;;;;;;;;;;30.35;45.71;100825.06;5045301;28;19917;-64
2023/06/23 10:14:15;;;;;;;;;;;;;;;30.09;45.28;100818.56;5033334;28;20363;-64
2023/06/23 10:16:41;;;;;;;;;;;;;;;30.39;46.01;100822.88;5031569;28;19917;-63
2023/06/23 10:19:07;;;;;;;;;;;;;;;30.54;45.62;100822.13;5045454;28;19916;-63
2023/06/23 10:21:32;;;;;;;;;;;;;;;30.94;44.08;100809.81;5048875;28;19927;-63
2023/06/23 10:24:01;;;;;;;;;;;;;;;30.35;44.25;100808.59;5038285;28;19924;-64
2023/06/23 10:26:27;;;;;;;;;;;;;;;30.47;45.08;100807.34;5033430;28;20296;-64
2023/06/23 10:28:53;;;;;;;;;;;;;;;30.70;42.86;100803.06;5040982;28;19966;-65
2023/06/23 10:31:19;;;;;;;;;;;;;;;30.81;44.73;100804.72;5037118;28;20379;-64
2023/06/23 10:33:45;;;;;;;;;;;;;;;31.28;43.95;100807.97;5036806;28;19917;-64
2023/06/23 10:36:13;;;;;;;;;;;;;;;31.67;41.62;100809.22;5050461;28;19921;-64
2023/06/23 10:38:43;;;;;;;;;;;;;;;31.85;40.54;100807.22;5038570;28;20002;-64
2023/06/23 10:41:10;;;;;;;;;;;;;;;31.71;42.97;100813.38;5035221;28;20587;-64
2023/06/23 10:43:36;;;;;;;;;;;;;;;32.05;40.28;100805.94;5037044;28;19968;-63
2023/06/23 10:46:03;;;;;;;;;;;;;;;32.20;42.75;100807.00;5034041;28;20034;-63
2023/06/23 10:48:29;;;;;;;;;;;;;;;31.99;41.72;100806.63;5045974;28;19927;-63
2023/06/23 10:50:55;;;;;;;;;;;;;;;32.10;41.16;100809.94;5050518;28;20293;-64
2023/06/23 10:53:24;;;;;;;;;;;;;;;32.03;41.06;100813.50;5049539;28;19917;-64
2023/06/23 10:55:54;;;;;;;;;;;;;;;31.86;40.48;100814.50;5044398;28;20581;-64
2023/06/23 10:58:20;;;;;;;;;;;;;;;32.31;39.00;100809.44;5033197;28;19921;-64
2023/06/23 11:00:54;;;;;;;;;;;;;;;32.43;40.10;100812.75;5035909;28;19927;-65
2023/06/23 11:03:38;;;;;;;7.57;4.90;;;;;;;31.91;38.76;100812.13;5031268;28;20423;-64
2023/06/23 11:06:06;;;;;;;6.88;4.28;;;;;;;32.18;40.41;100811.81;5044548;28;20053;-64
2023/06/23 11:08:34;;;;;;;7.45;4.63;;;;;;;32.01;40.87;100810.09;5041457;28;20052;-64
2023/06/23 11:11:04;;;;;;;7.15;4.53;;;;;;;31.50;41.10;100821.19;5050139;28;20025;-64
2023/06/23 11:13:45;;;;;;;6.93;3.97;;;;;;;31.50;40.26;100808.28;5049265;28;20029;-64
2023/06/23 11:16:14;;;;;;;7.63;4.45;;;;;;;31.46;40.47;100811.53;5049009;28;20055;-63
2023/06/23 11:18:51;;;;;;;7.85;4.13;;;;;;;30.86;41.55;100807.84;5049780;28;20025;-64
2023/06/23 11:21:37;;;;;;;6.93;4.07;;;;;;;30.33;42.03;100798.78;5049285;28;20454;-64
2023/06/23 11:24:07;;;;;;;7.75;4.65;;;;;;;30.01;44.38;100804.75;5050176;28;20364;-64
2023/06/23 11:26:32;;;;;;;7.57;4.38;;;;;;;30.59;41.90;100802.47;5048414;28;20033;-64
2023/06/23 11:28:59;;;;;;;5.95;3.90;;;;;;;31.38;39.49;100804.13;5046158;28;20029;-64
2023/06/23 11:31:28;;;;;;;7.53;4.15;;;;;;;31.69;37.27;100802.53;5049439;28;20032;-63
2023/06/23 11:34:02;;;;;;;6.28;4.10;;;;;;;31.62;37.69;100803.34;5050105;28;20136;-64
2023/06/23 11:36:30;;;;;;;7.18;3.78;;;;;;;31.95;36.89;100802.47;5049005;28;20033;-63
2023/06/23 11:38:56;;;;;;;7.93;4.15;;;;;;;31.89;37.37;100794.91;5030844;28;20029;-64